createdAt,value
2023-01-13T00:00:13.085Z,35.6370
2023-01-13T00:01:15.420Z,35.6330
2023-01-13T00:02:17.893Z,35.6360
2023-01-13T00:03:20.164Z,35.5670
2023-01-13T00:04:20.331Z,35.6050
2023-01-13T00:05:22.666Z,35.6110
2023-01-13T00:06:25.037Z,35.5840
2023-01-13T00:07:27.400Z,35.5690
2023-01-13T00:09:06.394Z,35.6050
2023-01-13T00:10:08.685Z,35.5720
2023-01-13T00:11:11.013Z,35.6110
2023-01-13T00:12:13.358Z,35.5820
2023-01-13T00:13:13.600Z,35.5880
2023-01-13T00:14:15.863Z,35.5720
2023-01-13T00:15:18.232Z,35.5620
2023-01-13T00:16:20.619Z,35.5470
2023-01-13T00:17:22.974Z,35.5180
2023-01-13T00:18:23.371Z,35.5580
2023-01-13T00:19:25.602Z,35.5240
2023-01-13T00:20:27.994Z,35.5390
2023-01-13T00:21:30.350Z,35.5090
2023-01-13T00:22:32.756Z,35.5400
2023-01-13T00:23:34.001Z,35.5900
2023-01-13T00:24:34.200Z,35.7300
2023-01-13T00:25:36.578Z,35.8140
2023-01-13T00:27:37.059Z,35.7320
2023-01-13T00:28:37.272Z,35.6790
2023-01-13T00:29:39.530Z,35.5880
2023-01-13T00:30:41.794Z,35.5100
2023-01-13T00:31:44.131Z,35.4780
2023-01-13T00:32:46.407Z,35.4650
2023-01-13T00:33:48.831Z,35.4710
2023-01-13T00:34:48.862Z,35.4070
2023-01-13T00:35:51.229Z,35.4150
2023-01-13T00:36:53.607Z,35.4580
2023-01-13T00:37:55.996Z,35.4270
2023-01-13T00:38:58.508Z,35.4280
2023-01-13T00:39:58.624Z,35.4650
2023-01-13T00:41:01.017Z,35.4180
2023-01-13T00:42:03.415Z,35.4080
2023-01-13T00:43:05.817Z,35.4180
2023-01-13T00:44:06.184Z,35.3810
2023-01-13T00:45:08.423Z,35.3790
2023-01-13T00:46:10.864Z,35.3410
2023-01-13T00:47:13.160Z,35.3430
2023-01-13T00:48:13.391Z,35.3670
2023-01-13T00:49:15.840Z,35.3430
2023-01-13T00:50:18.142Z,35.3520
2023-01-13T00:51:20.526Z,35.2770
2023-01-13T00:52:22.932Z,35.2610
2023-01-13T00:53:23.167Z,35.2710
2023-01-13T00:54:25.588Z,35.2650
2023-01-13T00:55:27.931Z,35.2880
2023-01-13T00:56:41.234Z,35.2680
2023-01-13T00:57:30.536Z,35.3000
2023-01-13T00:58:32.956Z,35.2820
2023-01-13T00:59:35.413Z,35.2710
2023-01-13T01:00:37.869Z,35.2030
2023-01-13T01:01:38.325Z,35.1570
2023-01-13T01:02:40.480Z,35.2360
2023-01-13T01:03:42.821Z,35.2360
2023-01-13T01:04:45.285Z,35.2570
2023-01-13T01:05:47.647Z,35.2760
2023-01-13T01:06:50.070Z,35.2670
2023-01-13T01:07:52.472Z,35.2570
2023-01-13T01:08:52.744Z,35.2280
2023-01-13T01:09:55.271Z,35.2310
2023-01-13T01:10:57.485Z,35.2140
2023-01-13T01:11:59.872Z,35.2350
2023-01-13T01:13:00.123Z,35.2290
2023-01-13T01:14:02.519Z,35.2390
2023-01-13T01:15:04.944Z,35.2120
2023-01-13T01:16:07.342Z,35.2280
2023-01-13T01:17:07.482Z,35.1930
2023-01-13T01:18:09.801Z,35.2180
2023-01-13T01:19:12.165Z,35.2330
2023-01-13T01:20:12.464Z,35.2610
2023-01-13T01:21:14.775Z,35.2290
2023-01-13T01:22:17.146Z,35.2330
2023-01-13T01:23:19.540Z,35.2260
2023-01-13T01:24:21.916Z,35.1820
2023-01-13T01:25:24.327Z,35.1970
2023-01-13T01:26:24.474Z,35.1800
2023-01-13T01:27:26.814Z,35.1910
2023-01-13T01:28:29.171Z,35.1910
2023-01-13T01:29:31.552Z,35.1430
2023-01-13T01:30:33.904Z,35.1770
2023-01-13T01:31:34.231Z,35.1440
2023-01-13T01:32:36.470Z,35.1800
2023-01-13T01:33:38.855Z,35.1760
2023-01-13T01:34:41.210Z,35.1640
2023-01-13T01:35:41.453Z,35.1180
2023-01-13T01:36:43.816Z,35.1560
2023-01-13T01:37:46.206Z,35.1350
2023-01-13T01:38:48.609Z,35.1020
2023-01-13T01:39:50.998Z,35.0810
2023-01-13T01:40:51.369Z,35.0740
2023-01-13T01:41:53.644Z,35.0830
2023-01-13T01:42:56.086Z,35.1120
2023-01-13T01:43:56.334Z,35.0960
2023-01-13T01:44:58.692Z,35.1180
2023-01-13T01:46:01.260Z,35.0850
2023-01-13T01:47:03.547Z,34.9820
2023-01-13T01:48:03.722Z,35.0360
2023-01-13T01:49:06.069Z,35.0410
2023-01-13T01:50:08.424Z,35.0510
2023-01-13T01:51:10.802Z,35.0380
2023-01-13T01:52:13.032Z,35.0680
2023-01-13T01:53:13.237Z,35.0620
2023-01-13T01:54:15.580Z,35.0680
2023-01-13T01:55:17.947Z,35.0740
2023-01-13T01:56:20.297Z,35.0330
2023-01-13T01:57:22.568Z,35.0650
2023-01-13T01:58:22.760Z,35.0800
2023-01-13T01:59:25.069Z,35.0960
2023-01-13T02:00:27.354Z,35.0830
2023-01-13T02:01:30.049Z,35.0540
2023-01-13T02:02:32.112Z,35.0540
2023-01-13T02:03:34.331Z,35.0890
2023-01-13T02:04:34.506Z,35.0480
2023-01-13T02:05:36.846Z,35.0420
2023-01-13T02:06:39.218Z,35.0370
2023-01-13T02:07:41.487Z,35.0140
2023-01-13T02:08:43.811Z,35.0540
2023-01-13T02:09:46.143Z,35.0520
2023-01-13T02:10:46.321Z,35.0540
2023-01-13T02:11:48.670Z,35.0590
2023-01-13T02:12:50.978Z,35.0410
2023-01-13T02:13:53.345Z,35.0250
2023-01-13T02:14:55.715Z,35.0310
2023-01-13T02:15:55.968Z,35.0350
2023-01-13T02:16:58.477Z,35.0470
2023-01-13T02:18:00.716Z,35.0550
2023-01-13T02:19:03.105Z,35.0480
2023-01-13T02:20:03.336Z,34.9900
2023-01-13T02:21:05.713Z,34.9730
2023-01-13T02:22:08.143Z,34.9960
2023-01-13T02:23:10.464Z,34.9960
2023-01-13T02:24:10.650Z,34.9620
2023-01-13T02:25:12.981Z,34.9710
2023-01-13T02:26:15.274Z,34.9790
2023-01-13T02:27:17.567Z,34.9450
2023-01-13T02:28:19.853Z,34.9330
2023-01-13T02:29:20.042Z,34.9040
2023-01-13T02:30:22.352Z,34.9230
2023-01-13T02:31:24.717Z,34.9260
2023-01-13T02:32:27.090Z,34.9390
2023-01-13T02:33:29.378Z,34.9300
2023-01-13T02:34:31.716Z,34.9340
2023-01-13T02:35:31.913Z,34.9720
2023-01-13T02:36:34.265Z,34.9830
2023-01-13T02:37:36.661Z,34.9550
2023-01-13T02:38:38.889Z,34.9670
2023-01-13T02:39:41.220Z,34.9530
2023-01-13T02:40:41.408Z,34.9250
2023-01-13T02:41:43.694Z,34.9040
2023-01-13T02:42:45.975Z,34.9720
2023-01-13T02:43:48.289Z,34.9150
2023-01-13T02:44:50.614Z,34.8750
2023-01-13T02:45:53.195Z,34.8810
2023-01-13T02:46:53.145Z,34.8690
2023-01-13T02:47:55.523Z,34.9040
2023-01-13T02:48:57.835Z,34.9080
2023-01-13T02:50:00.185Z,34.9120
2023-01-13T02:51:02.527Z,34.9440
2023-01-13T02:52:02.717Z,34.9290
2023-01-13T02:53:05.065Z,34.9520
2023-01-13T02:54:07.291Z,34.9170
2023-01-13T02:55:09.590Z,34.8510
2023-01-13T02:56:11.955Z,34.8750
2023-01-13T02:57:12.148Z,34.8990
2023-01-13T02:58:14.519Z,34.8560
2023-01-13T02:59:16.875Z,34.8970
2023-01-13T03:00:19.245Z,34.8640
2023-01-13T03:01:21.753Z,34.8450
2023-01-13T03:02:22.016Z,34.8170
2023-01-13T03:03:24.283Z,34.8510
2023-01-13T03:04:26.652Z,34.8400
2023-01-13T03:05:29.053Z,34.8290
2023-01-13T03:06:29.285Z,34.8760
2023-01-13T03:07:31.673Z,34.8750
2023-01-13T03:08:34.106Z,34.8970
2023-01-13T03:09:36.379Z,34.8230
2023-01-13T03:10:36.605Z,34.8060
2023-01-13T03:11:38.986Z,34.8230
2023-01-13T03:12:41.384Z,34.8510
2023-01-13T03:13:43.770Z,34.8170
2023-01-13T03:14:46.117Z,34.7960
2023-01-13T03:15:46.325Z,34.8240
2023-01-13T03:16:48.709Z,34.7810
2023-01-13T03:17:49.947Z,34.8620
2023-01-13T03:18:52.354Z,34.9870
2023-01-13T03:19:53.710Z,34.9460
2023-01-13T03:20:56.080Z,34.8750
2023-01-13T03:21:56.303Z,34.8340
2023-01-13T03:22:58.692Z,34.8900
2023-01-13T03:24:01.135Z,34.8720
2023-01-13T03:25:03.483Z,34.8720
2023-01-13T03:26:03.726Z,34.8860
2023-01-13T03:27:06.138Z,34.8820
2023-01-13T03:28:08.509Z,34.9090
2023-01-13T03:29:10.911Z,34.8270
2023-01-13T03:30:13.268Z,34.7520
2023-01-13T03:31:13.465Z,34.7560
2023-01-13T03:32:15.843Z,34.8040
2023-01-13T03:33:18.270Z,34.8540
2023-01-13T03:34:20.772Z,34.8210
2023-01-13T03:35:20.922Z,34.8370
2023-01-13T03:36:23.286Z,34.8810
2023-01-13T03:37:25.673Z,34.9040
2023-01-13T03:38:28.043Z,34.9100
2023-01-13T03:39:28.430Z,34.8980
2023-01-13T03:40:30.659Z,34.8830
2023-01-13T03:41:33.045Z,34.8650
2023-01-13T03:42:35.392Z,34.8480
2023-01-13T03:44:59.503Z,34.9090
2023-01-13T03:46:01.824Z,34.8610
2023-01-13T03:47:04.123Z,34.8550
2023-01-13T03:48:06.418Z,34.8070
2023-01-13T03:49:06.607Z,34.8270
2023-01-13T03:50:08.983Z,34.8310
2023-01-13T03:51:11.314Z,34.7840
2023-01-13T03:52:13.681Z,34.7810
2023-01-13T03:53:16.067Z,34.8970
2023-01-13T03:54:16.313Z,34.9330
2023-01-13T03:55:18.719Z,35.0300
2023-01-13T03:56:21.030Z,34.9790
2023-01-13T03:57:23.384Z,34.8680
2023-01-13T03:58:25.669Z,34.8100
2023-01-13T03:59:25.840Z,34.8480
2023-01-13T04:00:28.196Z,34.8850
2023-01-13T04:01:30.615Z,34.8790
2023-01-13T04:02:32.841Z,34.8600
2023-01-13T04:03:35.183Z,34.8730
2023-01-13T04:04:35.312Z,34.8630
2023-01-13T04:05:37.641Z,34.8480
2023-01-13T04:06:39.977Z,34.9930
2023-01-13T04:07:42.369Z,35.0940
2023-01-13T04:08:44.754Z,35.2140
2023-01-13T04:09:45.022Z,35.3150
2023-01-13T04:10:47.462Z,35.3490
2023-01-13T04:11:49.820Z,35.3630
2023-01-13T04:12:52.231Z,35.4020
2023-01-13T04:13:52.503Z,35.3940
2023-01-13T04:14:54.860Z,35.3910
2023-01-13T04:15:57.413Z,35.4490
2023-01-13T04:16:59.670Z,35.4320
2023-01-13T04:17:59.920Z,35.4210
2023-01-13T04:19:02.247Z,35.4580
2023-01-13T04:20:04.571Z,35.4510
2023-01-13T04:21:06.936Z,35.4540
2023-01-13T04:22:07.107Z,35.4690
2023-01-13T04:23:09.490Z,35.5600
2023-01-13T04:24:11.896Z,35.5830
2023-01-13T04:25:14.298Z,35.6300
2023-01-13T04:26:14.600Z,35.6340
2023-01-13T04:27:16.944Z,35.6690
2023-01-13T04:28:19.285Z,35.6920
2023-01-13T04:29:21.628Z,35.6580
2023-01-13T04:30:24.004Z,35.6370
2023-01-13T04:31:24.365Z,35.6310
2023-01-13T04:32:26.423Z,35.6550
2023-01-13T04:33:28.728Z,35.6930
2023-01-13T04:34:31.067Z,35.6960
2023-01-13T04:35:33.404Z,35.6690
2023-01-13T04:36:35.783Z,35.6630
2023-01-13T04:37:35.892Z,35.6690
2023-01-13T04:38:38.179Z,35.6900
2023-01-13T04:39:40.448Z,35.6750
2023-01-13T04:40:42.759Z,35.6300
2023-01-13T04:41:45.038Z,35.5640
2023-01-13T04:42:47.292Z,35.5440
2023-01-13T04:43:49.607Z,35.5760
2023-01-13T04:44:49.805Z,35.5880
2023-01-13T04:45:52.128Z,35.6520
2023-01-13T04:46:54.485Z,35.6790
2023-01-13T04:47:54.621Z,35.7120
2023-01-13T04:48:56.943Z,35.7460
2023-01-13T04:49:57.088Z,35.7520
2023-01-13T04:50:57.296Z,35.7590
2023-01-13T04:51:59.666Z,35.8050
2023-01-13T04:53:01.945Z,35.8260
2023-01-13T04:54:04.220Z,35.7560
2023-01-13T04:55:06.518Z,35.6480
2023-01-13T04:56:06.720Z,35.6920
2023-01-13T04:57:09.144Z,35.7020
2023-01-13T04:58:11.509Z,35.7980
2023-01-13T04:59:13.808Z,35.8370
2023-01-13T05:00:16.185Z,35.8530
2023-01-13T05:01:18.600Z,35.9180
2023-01-13T05:02:21.023Z,35.9400
2023-01-13T05:03:23.278Z,35.9580
2023-01-13T05:04:25.708Z,35.9700
2023-01-13T05:05:25.828Z,36.0150
2023-01-13T05:06:28.129Z,35.9880
2023-01-13T05:07:30.462Z,35.9510
2023-01-13T05:08:32.787Z,35.8850
2023-01-13T05:09:35.116Z,35.9360
2023-01-13T05:10:35.327Z,35.9640
2023-01-13T05:11:37.693Z,35.9720
2023-01-13T05:12:40.187Z,36.0190
2023-01-13T05:13:42.364Z,36.2290
2023-01-13T05:14:44.714Z,36.0620
2023-01-13T05:15:44.954Z,36.0730
2023-01-13T05:16:47.253Z,36.1470
2023-01-13T05:17:49.571Z,36.2400
2023-01-13T05:18:51.833Z,36.2800
2023-01-13T05:19:54.190Z,36.3780
2023-01-13T05:20:56.554Z,36.3860
2023-01-13T05:21:56.712Z,36.4200
2023-01-13T05:22:59.155Z,36.5190
2023-01-13T05:24:01.350Z,36.5870
2023-01-13T05:25:03.740Z,36.6970
2023-01-13T05:26:06.131Z,36.7730
2023-01-13T05:27:06.366Z,36.8740
2023-01-13T05:28:08.869Z,37.0270
2023-01-13T05:29:11.047Z,37.1140
2023-01-13T05:30:13.375Z,37.1680
2023-01-13T05:31:15.744Z,37.2430
2023-01-13T05:32:15.857Z,37.4070
2023-01-13T05:33:18.237Z,37.3820
2023-01-13T05:34:20.490Z,37.4190
2023-01-13T05:35:22.837Z,37.5740
2023-01-13T05:36:25.155Z,37.6880
2023-01-13T05:37:25.366Z,37.7260
2023-01-13T05:38:27.722Z,37.8850
2023-01-13T05:39:30.026Z,37.9270
2023-01-13T05:40:32.353Z,37.9110
2023-01-13T05:41:34.655Z,38.0510
2023-01-13T05:42:34.851Z,38.0750
2023-01-13T05:43:37.375Z,38.1290
2023-01-13T05:44:39.539Z,38.0730
2023-01-13T05:45:41.899Z,38.0780
2023-01-13T05:46:44.325Z,38.1680
2023-01-13T05:47:44.448Z,38.2260
2023-01-13T05:48:46.732Z,38.2580
2023-01-13T05:49:49.064Z,38.1120
2023-01-13T05:50:51.372Z,38.2540
2023-01-13T05:51:53.728Z,38.3670
2023-01-13T05:52:56.085Z,38.2840
2023-01-13T05:53:56.314Z,38.3730
2023-01-13T05:54:58.598Z,38.5440
2023-01-13T05:56:00.893Z,38.6130
2023-01-13T05:57:03.230Z,38.5930
2023-01-13T05:58:05.616Z,38.6490
2023-01-13T05:59:05.901Z,38.6220
2023-01-13T06:00:08.190Z,38.8090
2023-01-13T06:01:10.636Z,38.8570
2023-01-13T06:02:12.919Z,38.8400
2023-01-13T06:03:15.338Z,38.8750
2023-01-13T06:04:15.557Z,38.8840
2023-01-13T06:05:17.851Z,38.9430
2023-01-13T06:06:20.201Z,38.8120
2023-01-13T06:08:50.781Z,38.8540
2023-01-13T06:09:53.008Z,38.8230
2023-01-13T06:10:55.236Z,38.6990
2023-01-13T06:11:55.399Z,38.8590
2023-01-13T06:12:57.685Z,38.8420
2023-01-13T06:13:59.987Z,38.7930
2023-01-13T06:15:02.382Z,38.8530
2023-01-13T06:16:04.699Z,38.7450
2023-01-13T06:17:06.958Z,38.7330
2023-01-13T06:18:07.120Z,38.6950
2023-01-13T06:19:09.441Z,38.7930
2023-01-13T06:20:11.823Z,38.7680
2023-01-13T06:21:14.145Z,38.8820
2023-01-13T06:22:16.496Z,38.9030
2023-01-13T06:23:18.837Z,38.9750
2023-01-13T06:24:19.057Z,38.8470
2023-01-13T06:25:21.380Z,38.9840
2023-01-13T06:26:23.652Z,38.9470
2023-01-13T06:27:25.965Z,39.0190
2023-01-13T06:28:28.265Z,39.0360
2023-01-13T06:29:30.559Z,39.1400
2023-01-13T06:30:30.766Z,39.1520
2023-01-13T06:31:33.176Z,39.2880
2023-01-13T06:32:35.362Z,39.4760
2023-01-13T06:33:37.660Z,39.3930
2023-01-13T06:34:39.969Z,39.5220
2023-01-13T06:35:42.308Z,39.6230
2023-01-13T06:36:42.509Z,39.5450
2023-01-13T06:37:44.906Z,39.5550
2023-01-13T06:38:47.331Z,39.7540
2023-01-13T06:39:49.731Z,39.7990
2023-01-13T06:40:50.015Z,39.6260
2023-01-13T06:41:52.349Z,39.6700
2023-01-13T06:42:54.693Z,39.6390
2023-01-13T06:43:57.039Z,39.6100
2023-01-13T06:44:57.223Z,39.6870
2023-01-13T06:45:59.564Z,39.6930
2023-01-13T06:47:01.874Z,39.8100
2023-01-13T06:48:04.101Z,39.8480
2023-01-13T06:49:06.378Z,39.7300
2023-01-13T06:50:08.690Z,39.8090
2023-01-13T06:51:08.906Z,39.8490
2023-01-13T06:52:11.212Z,39.9950
2023-01-13T06:53:13.563Z,39.9030
2023-01-13T06:54:15.901Z,39.9920
2023-01-13T06:55:18.254Z,40.1180
2023-01-13T06:56:18.462Z,40.1310
2023-01-13T06:57:20.787Z,40.1380
2023-01-13T06:58:23.076Z,40.0840
2023-01-13T06:59:25.395Z,40.1400
2023-01-13T07:00:27.751Z,40.1850
2023-01-13T07:01:30.271Z,40.2690
2023-01-13T07:02:30.388Z,40.2780
2023-01-13T07:03:32.572Z,40.2490
2023-01-13T07:04:34.904Z,40.2660
2023-01-13T07:05:37.230Z,40.2340
2023-01-13T07:06:39.668Z,40.3000
2023-01-13T07:07:41.876Z,40.4180
2023-01-13T07:08:42.048Z,40.3600
2023-01-13T07:09:44.393Z,40.3740
2023-01-13T07:10:46.668Z,40.2620
2023-01-13T07:11:49.042Z,40.2910
2023-01-13T07:12:51.314Z,40.1820
2023-01-13T07:13:53.648Z,40.2840
2023-01-13T07:14:53.816Z,40.1910
2023-01-13T07:15:56.145Z,40.2570
2023-01-13T07:16:58.541Z,40.2280
2023-01-13T07:18:00.821Z,40.2100
2023-01-13T07:19:03.184Z,40.2340
2023-01-13T07:20:04.387Z,40.1910
2023-01-13T07:21:07.871Z,40.0860
2023-01-13T07:22:11.254Z,40.0740
2023-01-13T07:24:12.733Z,40.2790
2023-01-13T07:25:15.132Z,40.2390
2023-01-13T07:26:15.422Z,40.2620
2023-01-13T07:27:17.864Z,40.2580
2023-01-13T07:28:20.267Z,40.1630
2023-01-13T07:29:22.656Z,40.1530
2023-01-13T07:30:22.904Z,40.2000
2023-01-13T07:31:25.455Z,40.2710
2023-01-13T07:32:27.752Z,40.2170
2023-01-13T07:33:30.090Z,40.1630
2023-01-13T07:34:30.296Z,40.0970
2023-01-13T07:35:32.638Z,40.1470
2023-01-13T07:36:35.051Z,40.0890
2023-01-13T07:37:37.432Z,40.0520
2023-01-13T07:38:39.823Z,40.0070
2023-01-13T07:39:40.039Z,39.9900
2023-01-13T07:40:42.439Z,40.0190
2023-01-13T07:41:44.827Z,40.0370
2023-01-13T07:42:47.222Z,40.0130
2023-01-13T07:43:47.424Z,40.0580
2023-01-13T07:44:49.818Z,40.0170
2023-01-13T07:45:52.328Z,39.9870
2023-01-13T07:46:54.606Z,40.0190
2023-01-13T07:47:54.922Z,40.0090
2023-01-13T07:48:57.235Z,39.9010
2023-01-13T07:49:59.595Z,39.9460
2023-01-13T07:51:01.945Z,39.9150
2023-01-13T07:52:02.147Z,39.8950
2023-01-13T07:53:04.468Z,39.8700
2023-01-13T07:54:04.636Z,39.9900
2023-01-13T07:55:06.969Z,39.8740
2023-01-13T07:56:09.298Z,39.9180
2023-01-13T07:57:11.640Z,39.8410
2023-01-13T07:58:11.863Z,39.9070
2023-01-13T07:59:14.175Z,39.8510
2023-01-13T08:00:16.528Z,39.8710
2023-01-13T08:01:19.042Z,39.9880
2023-01-13T08:02:21.492Z,39.8790
2023-01-13T08:03:21.479Z,39.8740
2023-01-13T08:04:23.760Z,39.8790
2023-01-13T08:06:13.505Z,39.7630
2023-01-13T08:07:15.786Z,39.7820
2023-01-13T08:08:18.118Z,39.7340
2023-01-13T08:09:20.454Z,39.7400
2023-01-13T08:10:20.621Z,39.6470
2023-01-13T08:11:23.733Z,39.6350
2023-01-13T08:12:25.223Z,39.7010
2023-01-13T08:13:27.564Z,39.6180
2023-01-13T08:14:30.035Z,39.6330
2023-01-13T08:15:32.207Z,39.6630
2023-01-13T08:16:32.358Z,39.6630
2023-01-13T08:17:34.648Z,39.6270
2023-01-13T08:18:37.012Z,39.6450
2023-01-13T08:19:39.434Z,39.6080
2023-01-13T08:20:41.629Z,39.6200
2023-01-13T08:21:43.982Z,39.6090
2023-01-13T08:22:44.230Z,39.3480
2023-01-13T08:23:46.538Z,38.8530
2023-01-13T08:24:48.956Z,38.2360
2023-01-13T08:25:51.282Z,38.3140
2023-01-13T08:26:53.640Z,38.2920
2023-01-13T08:27:53.897Z,38.1940
2023-01-13T08:28:56.307Z,38.4760
2023-01-13T08:29:58.752Z,37.8080
2023-01-13T08:30:59.024Z,37.8100
2023-01-13T08:32:01.362Z,37.4650
2023-01-13T08:33:03.749Z,37.7960
2023-01-13T08:34:06.181Z,38.5630
2023-01-13T08:35:08.606Z,38.6560
2023-01-13T08:36:08.846Z,38.6790
2023-01-13T08:37:11.277Z,38.5020
2023-01-13T08:38:13.723Z,38.5830
2023-01-13T08:39:13.992Z,38.5660
2023-01-13T08:40:16.475Z,38.6040
2023-01-13T08:41:18.851Z,38.5820
2023-01-13T08:42:21.321Z,38.5430
2023-01-13T08:43:58.129Z,38.6110
2023-01-13T08:44:58.291Z,38.6370
2023-01-13T08:46:00.810Z,38.5560
2023-01-13T08:47:02.998Z,38.5580
2023-01-13T08:48:05.371Z,38.5250
2023-01-13T08:49:07.754Z,38.5030
2023-01-13T08:50:08.009Z,38.5030
2023-01-13T08:51:10.477Z,38.5240
2023-01-13T08:52:12.807Z,38.5450
2023-01-13T08:53:15.238Z,38.5370
2023-01-13T08:54:15.481Z,38.5260
2023-01-13T08:55:17.911Z,38.5230
2023-01-13T08:56:20.379Z,38.5370
2023-01-13T08:57:20.567Z,38.5850
2023-01-13T08:58:22.924Z,38.5410
2023-01-13T08:59:25.360Z,38.5100
2023-01-13T09:00:27.735Z,38.5160
2023-01-13T09:01:28.182Z,38.5410
2023-01-13T09:02:30.494Z,38.5520
2023-01-13T09:03:32.841Z,38.5870
2023-01-13T09:04:35.362Z,38.5970
2023-01-13T09:05:35.541Z,38.5640
2023-01-13T09:06:37.844Z,38.5810
2023-01-13T09:07:40.187Z,38.5850
2023-01-13T09:08:42.550Z,38.6250
2023-01-13T09:09:44.908Z,38.6310
2023-01-13T09:10:45.109Z,38.6470
2023-01-13T09:11:47.482Z,38.6890
2023-01-13T09:12:49.796Z,38.7590
2023-01-13T09:13:52.120Z,38.7320
2023-01-13T09:14:54.369Z,38.9010
2023-01-13T09:15:54.555Z,38.7700
2023-01-13T09:16:56.788Z,38.7960
2023-01-13T09:17:59.105Z,38.8460
2023-01-13T09:19:01.406Z,38.8130
2023-01-13T09:20:03.714Z,38.8500
2023-01-13T09:21:06.105Z,38.9170
2023-01-13T09:22:06.194Z,38.9020
2023-01-13T09:23:10.526Z,38.9230
2023-01-13T09:24:10.791Z,38.9270
2023-01-13T09:25:13.118Z,39.0010
2023-01-13T09:26:15.467Z,39.0100
2023-01-13T09:27:17.925Z,38.9980
2023-01-13T09:28:17.980Z,38.9560
2023-01-13T09:29:20.325Z,39.0660
2023-01-13T09:30:22.703Z,39.1170
2023-01-13T09:31:25.137Z,39.1610
2023-01-13T09:32:25.342Z,39.0600
2023-01-13T09:33:27.646Z,39.1610
2023-01-13T09:34:30.025Z,39.1320
2023-01-13T09:35:32.382Z,39.0780
2023-01-13T09:36:34.806Z,39.1260
2023-01-13T09:37:35.085Z,39.1320
2023-01-13T09:38:37.301Z,39.1610
2023-01-13T09:39:39.575Z,39.1490
2023-01-13T09:40:41.843Z,39.2090
2023-01-13T09:41:44.103Z,39.2300
2023-01-13T09:42:46.390Z,39.2300
2023-01-13T09:43:48.623Z,39.2210
2023-01-13T09:44:48.766Z,39.2590
2023-01-13T09:45:51.023Z,39.2200
2023-01-13T09:46:53.269Z,39.2200
2023-01-13T09:47:55.534Z,39.2030
2023-01-13T09:48:57.802Z,39.2150
2023-01-13T09:50:00.091Z,39.2530
2023-01-13T09:51:02.453Z,39.3110
2023-01-13T09:53:20.337Z,39.2900
2023-01-13T09:54:22.366Z,39.3810
2023-01-13T09:55:24.653Z,39.2590
2023-01-13T09:56:26.908Z,39.2290
2023-01-13T09:57:29.274Z,39.2080
2023-01-13T09:58:31.601Z,39.2250
2023-01-13T09:59:33.946Z,39.2410
2023-01-13T10:00:34.140Z,39.3240
2023-01-13T10:01:36.452Z,39.3400
2023-01-13T10:02:38.788Z,39.2780
2023-01-13T10:03:41.249Z,39.2900
2023-01-13T10:04:43.427Z,39.2410
2023-01-13T10:05:43.587Z,39.2200
2023-01-13T10:06:45.874Z,39.1850
2023-01-13T10:07:49.425Z,39.2260
2023-01-13T10:08:50.648Z,39.2620
2023-01-13T10:09:52.925Z,39.2790
2023-01-13T10:10:53.138Z,39.1900
2023-01-13T10:11:55.513Z,39.1630
2023-01-13T10:12:57.834Z,39.2140
2023-01-13T10:14:00.237Z,39.1630
2023-01-13T10:15:02.567Z,39.1380
2023-01-13T10:16:03.266Z,39.0800
2023-01-13T10:17:05.151Z,39.0500
2023-01-13T10:18:07.506Z,39.0620
2023-01-13T10:19:09.862Z,39.0620
2023-01-13T10:20:10.055Z,38.9980
2023-01-13T10:21:10.249Z,39.0200
2023-01-13T10:22:12.609Z,39.0910
2023-01-13T10:23:14.964Z,39.0310
2023-01-13T10:24:17.357Z,39.0200
2023-01-13T10:25:17.515Z,39.0850
2023-01-13T10:26:19.887Z,39.0850
2023-01-13T10:27:22.190Z,39.0560
2023-01-13T10:28:24.536Z,39.0730
2023-01-13T10:29:26.878Z,39.1280
2023-01-13T10:30:29.237Z,39.0920
2023-01-13T10:31:31.594Z,39.1320
2023-01-13T10:32:33.911Z,39.1260
2023-01-13T10:33:36.277Z,39.1980
2023-01-13T10:34:38.663Z,39.1810
2023-01-13T10:35:38.846Z,39.1750
2023-01-13T10:36:41.232Z,39.1420
2023-01-13T10:37:43.586Z,39.1420
2023-01-13T10:38:45.866Z,39.1960
2023-01-13T10:39:48.227Z,39.1750
2023-01-13T10:40:48.321Z,39.2020
2023-01-13T10:41:50.611Z,39.1730
2023-01-13T10:42:52.970Z,39.1540
2023-01-13T10:43:55.315Z,39.1210
2023-01-13T10:44:57.704Z,39.1970
2023-01-13T10:46:00.006Z,39.1280
2023-01-13T10:47:00.212Z,39.2150
2023-01-13T10:48:02.566Z,39.2060
2023-01-13T10:49:04.873Z,39.2180
2023-01-13T10:50:09.474Z,39.1990
2023-01-13T10:51:09.349Z,39.2240
2023-01-13T10:52:11.667Z,39.2120
2023-01-13T10:53:13.832Z,39.1930
2023-01-13T10:54:13.966Z,39.1990
2023-01-13T10:55:16.299Z,39.2200
2023-01-13T10:56:18.512Z,39.2460
2023-01-13T10:57:20.775Z,39.2210
2023-01-13T10:58:23.036Z,39.1800
2023-01-13T10:59:25.324Z,39.1860
2023-01-13T11:00:27.650Z,39.1550
2023-01-13T11:01:30.001Z,39.1860
2023-01-13T11:02:30.333Z,39.1820
2023-01-13T11:04:21.989Z,39.2070
2023-01-13T11:05:24.169Z,39.1680
2023-01-13T11:06:24.357Z,39.1370
2023-01-13T11:07:28.332Z,39.2150
2023-01-13T11:08:29.047Z,39.1760
2023-01-13T11:09:31.374Z,39.1220
2023-01-13T11:10:33.797Z,39.1470
2023-01-13T11:11:34.025Z,39.0990
2023-01-13T11:12:36.367Z,39.0710
2023-01-13T11:13:38.743Z,39.1210
2023-01-13T11:14:41.127Z,39.0500
2023-01-13T11:15:41.358Z,39.0890
2023-01-13T11:16:52.980Z,39.1280
2023-01-13T11:17:46.039Z,39.2120
2023-01-13T11:18:48.385Z,39.2020
2023-01-13T11:19:50.717Z,39.2250
2023-01-13T11:20:50.904Z,39.3800
2023-01-13T11:21:53.286Z,39.6380
2023-01-13T11:22:55.533Z,39.6710
2023-01-13T11:23:57.805Z,39.6860
2023-01-13T11:25:00.141Z,39.7510
2023-01-13T11:26:02.515Z,39.7390
2023-01-13T11:27:02.683Z,39.7330
2023-01-13T11:28:04.993Z,39.7330
2023-01-13T11:29:07.324Z,39.7880
2023-01-13T11:30:09.686Z,39.8400
2023-01-13T11:31:12.037Z,39.8320
2023-01-13T11:32:14.356Z,39.8320
2023-01-13T11:33:14.520Z,39.7990
2023-01-13T11:34:16.885Z,39.8450
2023-01-13T11:35:19.245Z,39.7780
2023-01-13T11:36:21.604Z,39.8590
2023-01-13T11:37:23.928Z,39.8220
2023-01-13T11:38:24.045Z,39.8280
2023-01-13T11:39:26.365Z,39.8110
2023-01-13T11:40:28.706Z,39.8630
2023-01-13T11:41:31.022Z,39.8050
2023-01-13T11:42:35.877Z,39.6870
2023-01-13T11:43:33.578Z,39.6240
2023-01-13T11:44:35.912Z,39.5940
2023-01-13T11:45:38.216Z,39.5190
2023-01-13T11:46:40.630Z,39.4450
2023-01-13T11:47:42.927Z,39.3080
2023-01-13T11:48:43.106Z,39.2750
2023-01-13T11:49:45.360Z,39.2440
2023-01-13T11:50:47.666Z,39.2340
2023-01-13T11:51:49.972Z,39.1340
2023-01-13T11:52:52.270Z,39.0350
2023-01-13T11:53:54.546Z,38.9690
2023-01-13T11:54:56.844Z,38.9400
2023-01-13T11:55:57.040Z,38.9750
2023-01-13T11:56:59.436Z,38.9520
2023-01-13T11:58:01.749Z,38.9520
2023-01-13T11:59:04.081Z,38.9690
2023-01-13T12:00:06.441Z,38.8240
2023-01-13T12:01:06.719Z,38.7330
2023-01-13T12:02:09.236Z,38.8180
2023-01-13T12:03:11.417Z,38.7580
2023-01-13T12:04:13.719Z,38.7430
2023-01-13T12:05:16.111Z,38.7430
2023-01-13T12:06:18.430Z,38.8030
2023-01-13T12:07:22.996Z,38.8750
2023-01-13T12:08:23.124Z,38.8630
2023-01-13T12:09:25.413Z,38.7870
2023-01-13T12:10:27.701Z,38.7190
2023-01-13T12:11:27.853Z,38.1580
2023-01-13T12:12:30.170Z,38.0720
2023-01-13T12:13:32.441Z,38.1760
2023-01-13T12:14:32.598Z,38.0720
2023-01-13T12:15:34.996Z,38.0890
2023-01-13T12:16:35.216Z,38.1340
2023-01-13T12:17:37.505Z,38.2110
2023-01-13T12:18:39.806Z,38.1330
2023-01-13T12:19:42.097Z,38.1220
2023-01-13T12:20:44.396Z,38.1000
2023-01-13T12:21:46.684Z,38.1270
2023-01-13T12:22:46.852Z,38.0650
2023-01-13T12:23:51.366Z,38.1040
2023-01-13T12:24:40.787Z,38.0980
2023-01-13T12:25:43.094Z,38.1080
2023-01-13T12:26:44.859Z,38.1510
2023-01-13T12:27:47.595Z,38.2790
2023-01-13T12:28:49.115Z,38.3550
2023-01-13T12:29:51.493Z,38.4710
2023-01-13T12:30:53.737Z,38.4030
2023-01-13T12:31:54.042Z,38.5010
2023-01-13T12:32:56.297Z,38.2960
2023-01-13T12:33:58.672Z,38.2850
2023-01-13T12:34:58.915Z,38.3650
2023-01-13T12:36:01.248Z,38.3940
2023-01-13T12:37:03.574Z,38.3830